createdAt,value
2022-07-25T00:01:13.002Z,1.00
2022-07-25T00:03:41.474Z,1.00
2022-07-25T00:06:13.395Z,1.00
2022-07-25T00:08:45.202Z,2.20
2022-07-25T00:11:12.769Z,19.90
2022-07-25T00:13:40.429Z,31.20
2022-07-25T00:16:08.183Z,35.10
2022-07-25T00:18:35.914Z,30.20
2022-07-25T00:21:03.613Z,38.30
2022-07-25T00:23:31.080Z,39.70
2022-07-25T00:25:59.216Z,35.80
2022-07-25T00:28:26.673Z,44.40
2022-07-25T00:30:54.490Z,62.20
2022-07-25T00:33:22.070Z,72.70
2022-07-25T00:35:49.532Z,72.90
2022-07-25T00:38:17.256Z,66.20
2022-07-25T00:40:45.063Z,74.00
2022-07-25T00:43:12.662Z,86.70
2022-07-25T00:45:40.464Z,84.60
2022-07-25T00:48:09.210Z,90.30
2022-07-25T00:50:36.914Z,92.90
2022-07-25T00:53:04.993Z,96.40
2022-07-25T00:55:33.801Z,98.60
2022-07-25T00:58:01.315Z,99.90
2022-07-25T01:00:28.990Z,98.90
2022-07-25T01:02:57.838Z,99.40
2022-07-25T01:05:25.623Z,97.00
2022-07-25T01:07:54.348Z,92.50
2022-07-25T01:10:21.896Z,83.50
2022-07-25T01:12:52.980Z,70.70
2022-07-25T01:15:21.030Z,85.20
2022-07-25T01:17:48.806Z,83.20
2022-07-25T01:20:24.482Z,64.30
2022-07-25T01:22:52.580Z,66.70
2022-07-25T01:25:20.694Z,58.60
2022-07-25T01:27:54.875Z,62.50
2022-07-25T01:30:24.037Z,57.00
2022-07-25T01:32:52.030Z,67.70
2022-07-25T01:35:20.129Z,72.90
2022-07-25T01:37:47.900Z,73.70
2022-07-25T01:40:15.905Z,88.20
2022-07-25T01:42:43.979Z,92.20
2022-07-25T01:45:12.434Z,93.60
2022-07-25T01:47:40.640Z,97.20
2022-07-25T01:50:09.165Z,95.20
2022-07-25T01:52:39.793Z,92.30
2022-07-25T01:55:08.188Z,93.70
2022-07-25T01:57:36.358Z,92.90
2022-07-25T02:00:09.945Z,91.00
2022-07-25T02:02:37.567Z,92.10
2022-07-25T02:05:05.493Z,92.90
2022-07-25T02:07:33.046Z,92.00
2022-07-25T02:10:00.491Z,95.00
2022-07-25T02:12:28.168Z,99.90
2022-07-25T02:14:55.705Z,99.90
2022-07-25T02:17:23.544Z,99.90
2022-07-25T02:19:51.635Z,99.90
2022-07-25T02:22:19.231Z,99.90
2022-07-25T02:24:46.784Z,99.90
2022-07-25T02:27:14.204Z,99.90
2022-07-25T02:29:41.694Z,99.90
2022-07-25T02:32:09.425Z,99.90
2022-07-25T02:34:36.977Z,99.90
2022-07-25T02:37:04.470Z,99.90
2022-07-25T02:39:31.993Z,99.90
2022-07-25T02:41:59.417Z,99.90
2022-07-25T02:44:26.836Z,99.90
2022-07-25T02:46:54.347Z,99.90
2022-07-25T02:49:21.960Z,99.90
2022-07-25T02:51:49.519Z,99.90
2022-07-25T02:54:17.092Z,99.90
2022-07-25T02:56:44.580Z,99.90
2022-07-25T02:59:12.020Z,99.90
2022-07-25T03:01:39.592Z,99.90
2022-07-25T03:04:07.402Z,99.90
2022-07-25T03:06:35.207Z,99.90
2022-07-25T03:09:02.783Z,99.90
2022-07-25T03:11:30.441Z,99.90
2022-07-25T03:13:58.045Z,99.90
2022-07-25T03:16:25.594Z,99.90
2022-07-25T03:18:53.428Z,99.90
2022-07-25T03:21:21.093Z,99.90
2022-07-25T03:23:52.450Z,99.90
2022-07-25T03:26:21.151Z,99.90
2022-07-25T03:28:48.677Z,96.00
2022-07-25T03:31:16.233Z,94.40
2022-07-25T03:33:43.746Z,89.10
2022-07-25T03:36:11.800Z,93.10
2022-07-25T03:38:39.674Z,91.90
2022-07-25T03:41:07.255Z,95.60
2022-07-25T03:43:34.837Z,92.50
2022-07-25T03:46:02.331Z,87.50
2022-07-25T03:48:30.867Z,86.90
2022-07-25T03:51:01.222Z,82.60
2022-07-25T03:53:33.126Z,69.90
2022-07-25T03:56:00.690Z,69.60
2022-07-25T03:58:28.166Z,77.70
2022-07-25T04:00:55.695Z,93.00
2022-07-25T04:03:23.288Z,82.90
2022-07-25T04:05:50.810Z,86.70
2022-07-25T04:08:18.334Z,95.20
2022-07-25T04:10:45.850Z,92.00
2022-07-25T04:13:13.319Z,80.50
2022-07-25T04:15:40.776Z,81.60
2022-07-25T04:18:08.679Z,87.00
2022-07-25T04:20:40.773Z,69.20
2022-07-25T04:23:08.308Z,65.80
2022-07-25T04:25:35.852Z,55.90
2022-07-25T04:28:03.436Z,41.80
2022-07-25T04:30:30.928Z,39.70
2022-07-25T04:32:58.381Z,33.40
2022-07-25T04:35:25.974Z,22.50
2022-07-25T04:37:53.432Z,17.50
2022-07-25T04:40:21.048Z,17.90
2022-07-25T04:42:48.532Z,5.30
2022-07-25T04:45:17.694Z,14.10
2022-07-25T04:47:45.459Z,10.00
2022-07-25T04:50:13.491Z,1.00
2022-07-25T04:52:41.028Z,3.70
2022-07-25T04:55:09.012Z,1.00
2022-07-25T04:57:37.426Z,16.00
2022-07-25T05:00:06.878Z,1.00
2022-07-25T05:02:35.334Z,3.10
2022-07-25T05:05:03.186Z,15.30
2022-07-25T05:07:30.908Z,1.00
2022-07-25T05:09:58.361Z,1.00
2022-07-25T05:12:25.919Z,1.00
2022-07-25T05:14:55.164Z,1.00
2022-07-25T05:17:22.708Z,1.00
2022-07-25T05:19:50.239Z,1.00
2022-07-25T05:22:17.736Z,1.00
2022-07-25T05:24:45.272Z,1.00
2022-07-25T05:27:12.696Z,1.00
2022-07-25T05:29:40.226Z,1.00
2022-07-25T05:32:07.733Z,1.00
2022-07-25T05:34:35.382Z,1.00
2022-07-25T05:37:03.108Z,1.00
2022-07-25T05:39:30.766Z,99.90
2022-07-25T05:41:58.548Z,99.90
2022-07-25T05:44:26.024Z,99.90
2022-07-25T05:46:53.564Z,1.00
2022-07-25T05:49:21.118Z,1.00
2022-07-25T05:51:48.686Z,1.00
2022-07-25T05:54:16.222Z,1.00
2022-07-25T05:56:43.668Z,1.00
2022-07-25T05:59:11.131Z,1.00
2022-07-25T06:01:38.895Z,1.00
2022-07-25T06:04:06.861Z,1.00
2022-07-25T06:06:34.513Z,99.90
2022-07-25T06:09:02.227Z,99.90
2022-07-25T06:11:35.407Z,99.90
2022-07-25T06:14:16.926Z,99.90
2022-07-25T06:16:45.097Z,1.00
2022-07-25T06:19:12.638Z,99.90
2022-07-25T06:21:40.145Z,1.00
2022-07-25T06:24:09.379Z,1.00
2022-07-25T06:26:38.802Z,1.00
2022-07-25T06:29:06.418Z,1.00
2022-07-25T06:31:34.143Z,1.00
2022-07-25T06:34:03.357Z,1.00
2022-07-25T06:36:39.582Z,1.00
2022-07-25T06:39:07.470Z,1.00
2022-07-25T06:41:37.046Z,1.00
2022-07-25T06:44:04.935Z,1.00
2022-07-25T06:46:33.255Z,1.00
2022-07-25T06:49:01.216Z,1.00
2022-07-25T06:51:28.782Z,1.00
2022-07-25T06:53:56.937Z,1.00
2022-07-25T06:56:24.618Z,1.00
2022-07-25T06:58:53.516Z,1.00
2022-07-25T07:01:21.089Z,1.00
2022-07-25T07:03:48.906Z,1.00
2022-07-25T07:06:16.439Z,1.00
2022-07-25T07:08:43.996Z,99.90
2022-07-25T07:11:13.556Z,99.90
2022-07-25T07:13:45.019Z,99.90
2022-07-25T07:16:12.619Z,99.90
2022-07-25T07:18:40.185Z,99.90
2022-07-25T07:21:07.838Z,99.90
2022-07-25T07:23:35.861Z,1.00
2022-07-25T07:26:04.251Z,1.00
2022-07-25T07:28:31.935Z,1.00
2022-07-25T07:31:15.735Z,99.90
2022-07-25T07:34:01.621Z,99.90
2022-07-25T07:36:29.557Z,99.90
2022-07-25T07:38:57.415Z,48.70
2022-07-25T07:41:29.759Z,99.90
2022-07-25T07:43:57.312Z,1.00
2022-07-25T07:46:24.886Z,1.00
2022-07-25T07:48:52.472Z,16.60
2022-07-25T07:51:20.062Z,99.90
2022-07-25T07:54:06.006Z,99.90
2022-07-25T07:56:33.693Z,99.90
2022-07-25T07:59:01.263Z,99.90
2022-07-25T08:01:28.842Z,99.90
2022-07-25T08:03:56.536Z,95.90
2022-07-25T08:06:24.123Z,93.50
2022-07-25T08:08:51.677Z,99.90
2022-07-25T08:11:19.283Z,99.90
2022-07-25T08:13:46.986Z,1.00
2022-07-25T08:16:14.630Z,1.00
2022-07-25T08:18:42.172Z,99.90
2022-07-25T08:21:10.742Z,1.00
2022-07-25T08:23:39.183Z,99.90
2022-07-25T08:26:07.806Z,99.90
2022-07-25T08:28:35.329Z,1.00
2022-07-25T08:31:02.786Z,1.00
2022-07-25T08:33:30.338Z,1.00
2022-07-25T08:36:01.020Z,99.90
2022-07-25T08:38:29.165Z,1.00
2022-07-25T08:40:57.800Z,99.90
2022-07-25T08:43:25.330Z,99.90
2022-07-25T08:45:54.848Z,41.90
2022-07-25T08:48:24.663Z,1.00
2022-07-25T08:50:54.061Z,1.00
2022-07-25T08:53:37.663Z,1.00
2022-07-25T08:56:12.590Z,1.00
2022-07-25T08:58:44.298Z,1.00
2022-07-25T09:01:13.831Z,1.00
2022-07-25T09:03:43.419Z,99.90
2022-07-25T09:06:22.163Z,49.60
2022-07-25T09:08:58.347Z,1.00
2022-07-25T09:11:35.077Z,99.90
2022-07-25T09:14:11.041Z,99.90
2022-07-25T09:16:45.427Z,99.90
2022-07-25T09:19:23.548Z,99.90
2022-07-25T09:22:10.279Z,99.90
2022-07-25T09:24:45.409Z,99.90
2022-07-25T09:27:13.158Z,99.90
2022-07-25T09:29:51.084Z,99.90
2022-07-25T09:32:21.233Z,98.60
2022-07-25T09:34:50.233Z,99.90
2022-07-25T09:37:19.923Z,99.90
2022-07-25T09:39:53.030Z,2.10
2022-07-25T09:42:40.844Z,1.00
2022-07-25T09:45:29.620Z,1.00
2022-07-25T09:48:21.834Z,99.90
2022-07-25T09:50:54.937Z,99.90
2022-07-25T09:53:22.994Z,99.90
2022-07-25T09:55:55.304Z,99.90
2022-07-25T09:58:23.891Z,99.90
2022-07-25T10:00:54.325Z,99.90
2022-07-25T10:03:24.309Z,99.90
2022-07-25T10:06:22.048Z,99.90
2022-07-25T10:08:50.842Z,99.90
2022-07-25T10:11:28.187Z,99.90
2022-07-25T10:13:56.637Z,85.90
2022-07-25T10:16:26.302Z,70.00
2022-07-25T10:18:56.553Z,20.10
2022-07-25T10:21:28.317Z,1.00
2022-07-25T10:24:10.701Z,1.00
2022-07-25T10:26:40.642Z,1.00
2022-07-25T10:29:10.009Z,1.00
2022-07-25T10:31:46.107Z,1.00
2022-07-25T10:34:27.551Z,1.00
2022-07-25T10:36:57.463Z,1.00
2022-07-25T10:39:47.249Z,1.00
2022-07-25T10:42:18.216Z,1.00
2022-07-25T10:44:47.500Z,1.00
2022-07-25T10:47:17.167Z,1.00
2022-07-25T10:50:16.402Z,1.00
2022-07-25T10:52:40.530Z,1.00
2022-07-25T10:55:08.454Z,1.00
2022-07-25T10:57:45.096Z,1.00
2022-07-25T11:00:22.662Z,1.00
2022-07-25T11:02:50.543Z,1.00
2022-07-25T11:05:18.204Z,1.00
2022-07-25T11:08:18.915Z,99.90
2022-07-25T11:10:40.984Z,99.90
2022-07-25T11:13:14.793Z,99.90
2022-07-25T11:15:43.163Z,1.00
2022-07-25T11:18:11.718Z,1.00
2022-07-25T11:20:39.184Z,99.90
2022-07-25T11:23:06.846Z,99.90
2022-07-25T11:25:34.239Z,99.90
2022-07-25T11:28:03.348Z,99.90
2022-07-25T11:30:31.242Z,99.90
2022-07-25T11:33:01.775Z,99.90
2022-07-25T11:35:31.730Z,99.90
2022-07-25T11:38:02.551Z,99.90
2022-07-25T11:40:32.859Z,99.90
2022-07-25T11:43:00.820Z,99.90
2022-07-25T11:45:33.748Z,99.90
2022-07-25T11:48:10.200Z,99.90
2022-07-25T11:50:40.631Z,99.90
2022-07-25T11:53:10.579Z,99.90
2022-07-25T11:55:43.436Z,99.90
2022-07-25T11:58:13.222Z,99.90
2022-07-25T12:00:43.480Z,99.90
2022-07-25T12:03:19.819Z,99.90
2022-07-25T12:05:49.393Z,99.90
2022-07-25T12:08:19.057Z,99.90
2022-07-25T12:10:48.548Z,99.90
2022-07-25T12:13:30.932Z,99.90
2022-07-25T12:15:59.990Z,99.90
2022-07-25T12:18:27.747Z,99.90
2022-07-25T12:20:56.083Z,99.90
2022-07-25T12:23:23.477Z,99.90
2022-07-25T12:25:51.005Z,99.90
2022-07-25T12:28:18.525Z,99.90
2022-07-25T12:30:47.079Z,99.90
2022-07-25T12:33:15.231Z,99.90
2022-07-25T12:35:43.365Z,99.90
2022-07-25T12:38:14.468Z,99.90
2022-07-25T12:40:41.904Z,99.90
2022-07-25T12:43:12.696Z,99.90
2022-07-25T12:45:40.800Z,99.90
2022-07-25T12:48:09.237Z,99.90
2022-07-25T12:50:36.711Z,99.90
2022-07-25T12:53:04.723Z,99.90
2022-07-25T12:55:32.558Z,99.90
2022-07-25T12:58:00.521Z,99.90
2022-07-25T13:00:28.161Z,99.90
2022-07-25T13:02:56.212Z,99.90
2022-07-25T13:05:25.546Z,99.90
2022-07-25T13:07:53.146Z,99.90
2022-07-25T13:10:20.675Z,99.90
2022-07-25T13:12:48.419Z,99.90
2022-07-25T13:15:18.301Z,99.90
2022-07-25T13:17:45.749Z,99.90
2022-07-25T13:20:13.321Z,99.90
2022-07-25T13:22:40.770Z,99.90
2022-07-25T13:25:08.535Z,99.90
2022-07-25T13:27:37.695Z,99.90
2022-07-25T13:30:07.387Z,99.90
2022-07-25T13:32:35.319Z,99.90
2022-07-25T13:35:03.435Z,99.90
2022-07-25T13:37:33.161Z,99.90
2022-07-25T13:40:00.706Z,99.90
2022-07-25T13:42:28.479Z,99.90
2022-07-25T13:44:55.978Z,99.90
2022-07-25T13:47:26.959Z,99.90
2022-07-25T13:49:57.602Z,99.90
2022-07-25T13:52:25.185Z,99.90
2022-07-25T13:54:53.687Z,99.90
2022-07-25T13:57:21.270Z,99.90
2022-07-25T13:59:48.834Z,99.90
2022-07-25T14:02:16.346Z,99.90
2022-07-25T14:04:44.000Z,99.90
2022-07-25T14:07:11.411Z,99.90
2022-07-25T14:09:38.955Z,99.90
2022-07-25T14:12:06.588Z,99.90
2022-07-25T14:14:33.994Z,99.90
2022-07-25T14:17:01.814Z,99.90
2022-07-25T14:19:29.856Z,99.90
2022-07-25T14:21:57.753Z,99.90
2022-07-25T14:24:25.274Z,99.90
2022-07-25T14:26:54.122Z,99.90
2022-07-25T14:29:23.893Z,99.90
2022-07-25T14:31:54.890Z,99.90
2022-07-25T14:34:22.457Z,99.90
2022-07-25T14:36:50.002Z,99.90
2022-07-25T14:39:17.666Z,99.90
2022-07-25T14:41:45.270Z,99.90
2022-07-25T14:44:12.903Z,99.90
2022-07-25T14:46:43.186Z,99.90
2022-07-25T14:49:14.456Z,99.90
2022-07-25T14:51:43.337Z,99.90
2022-07-25T14:54:10.842Z,99.90
2022-07-25T14:56:39.418Z,99.90
2022-07-25T14:59:08.317Z,99.90
2022-07-25T15:01:38.191Z,99.90
2022-07-25T15:04:06.230Z,99.90
2022-07-25T15:06:33.981Z,99.90
2022-07-25T15:09:01.458Z,99.90
2022-07-25T15:11:28.889Z,99.90
2022-07-25T15:13:57.321Z,99.90
2022-07-25T15:16:25.000Z,99.90
2022-07-25T15:19:15.341Z,99.90
2022-07-25T15:21:40.170Z,99.90
2022-07-25T15:24:07.922Z,99.90
2022-07-25T15:26:36.329Z,99.90
2022-07-25T15:29:08.235Z,99.90
2022-07-25T15:31:37.002Z,99.90
2022-07-25T15:34:05.089Z,99.90
2022-07-25T15:36:32.588Z,99.90
2022-07-25T15:39:00.087Z,99.90
2022-07-25T15:41:27.656Z,99.90
2022-07-25T15:43:55.260Z,99.90
2022-07-25T15:46:22.913Z,99.90
2022-07-25T15:48:50.562Z,99.90
2022-07-25T15:51:18.437Z,99.90
2022-07-25T15:53:45.981Z,99.90
2022-07-25T15:56:16.977Z,99.90
2022-07-25T15:58:44.876Z,99.90
2022-07-25T16:01:12.374Z,99.90
2022-07-25T16:03:39.924Z,99.90
2022-07-25T16:06:07.912Z,99.90
2022-07-25T16:08:36.368Z,99.90
2022-07-25T16:11:04.764Z,99.90
2022-07-25T16:13:32.278Z,99.90
2022-07-25T16:15:59.755Z,99.90
2022-07-25T16:18:27.354Z,99.90
2022-07-25T16:20:54.904Z,99.90
2022-07-25T16:23:26.067Z,99.90
2022-07-25T16:25:53.818Z,99.90
2022-07-25T16:28:21.417Z,99.90
2022-07-25T16:30:49.680Z,99.90
2022-07-25T16:33:17.447Z,99.90
2022-07-25T16:35:45.019Z,99.90
2022-07-25T16:38:12.766Z,99.90
2022-07-25T16:40:40.432Z,99.90
2022-07-25T16:43:08.180Z,99.90
2022-07-25T16:45:36.752Z,99.90
2022-07-25T16:48:06.444Z,99.90
2022-07-25T16:50:34.504Z,99.90
2022-07-25T16:53:02.235Z,99.90
2022-07-25T16:55:29.867Z,99.90
2022-07-25T16:57:58.941Z,99.90
2022-07-25T17:00:26.536Z,99.90
2022-07-25T17:02:54.091Z,99.90
2022-07-25T17:05:21.734Z,99.90
2022-07-25T17:07:57.134Z,99.90
2022-07-25T17:10:27.075Z,99.90
2022-07-25T17:12:54.886Z,99.90
2022-07-25T17:15:23.013Z,99.90
2022-07-25T17:17:50.615Z,99.90
2022-07-25T17:20:19.557Z,99.90
2022-07-25T17:22:47.685Z,99.90
2022-07-25T17:25:15.283Z,99.90
2022-07-25T17:27:42.903Z,99.90
2022-07-25T17:30:11.077Z,99.90
2022-07-25T17:32:40.261Z,99.90
2022-07-25T17:35:08.543Z,99.90
2022-07-25T17:37:36.066Z,99.90
2022-07-25T17:40:04.705Z,99.90
2022-07-25T17:42:32.323Z,99.90
2022-07-25T17:45:00.097Z,99.90
2022-07-25T17:47:27.692Z,99.90
2022-07-25T17:49:55.192Z,99.90
2022-07-25T17:52:22.700Z,99.90
2022-07-25T17:54:50.215Z,99.90
2022-07-25T17:57:17.817Z,99.90
2022-07-25T17:59:45.446Z,99.90
2022-07-25T18:02:12.964Z,99.90
2022-07-25T18:04:40.798Z,99.90
2022-07-25T18:07:08.474Z,99.90
2022-07-25T18:09:36.056Z,99.90
2022-07-25T18:12:04.483Z,99.90
2022-07-25T18:14:34.104Z,99.90
2022-07-25T18:17:01.675Z,99.90
2022-07-25T18:19:29.083Z,99.90
2022-07-25T18:21:56.491Z,99.90
2022-07-25T18:24:29.055Z,1.00
2022-07-25T18:26:58.805Z,1.00
2022-07-25T18:29:26.481Z,1.00
2022-07-25T18:31:53.987Z,1.00
2022-07-25T18:34:21.490Z,99.90
2022-07-25T18:36:49.083Z,99.90
2022-07-25T18:39:16.743Z,19.60
2022-07-25T18:41:44.263Z,99.90
2022-07-25T18:44:11.740Z,1.00
2022-07-25T18:46:39.444Z,99.90
2022-07-25T18:49:08.935Z,99.90
2022-07-25T18:51:36.544Z,1.00
2022-07-25T18:54:05.041Z,1.00
2022-07-25T18:56:32.803Z,1.00
2022-07-25T18:59:00.458Z,29.30
2022-07-25T19:01:30.153Z,99.90
2022-07-25T19:03:57.774Z,1.00
2022-07-25T19:06:25.339Z,99.90
2022-07-25T19:08:52.912Z,1.00
2022-07-25T19:11:20.322Z,1.00
2022-07-25T19:13:49.938Z,87.80
2022-07-25T19:16:18.710Z,1.00
2022-07-25T19:18:46.535Z,99.90
2022-07-25T19:21:14.383Z,1.00
2022-07-25T19:23:44.684Z,1.00
2022-07-25T19:26:15.982Z,99.90
2022-07-25T19:28:43.576Z,99.90
2022-07-25T19:31:11.287Z,99.60
2022-07-25T19:33:39.023Z,99.90
2022-07-25T19:36:06.804Z,1.00
2022-07-25T19:38:34.501Z,99.90
2022-07-25T19:41:02.430Z,99.90
2022-07-25T19:43:30.026Z,99.90
2022-07-25T19:45:57.745Z,1.00
2022-07-25T19:48:25.628Z,99.90
2022-07-25T19:50:53.411Z,99.90
2022-07-25T19:53:25.362Z,99.90
2022-07-25T19:55:55.739Z,99.90
2022-07-25T19:58:23.298Z,99.90
2022-07-25T20:00:50.897Z,99.90
2022-07-25T20:03:23.553Z,99.90
2022-07-25T20:05:52.227Z,1.00
2022-07-25T20:08:19.797Z,1.00
2022-07-25T20:10:48.534Z,99.90
2022-07-25T20:13:16.331Z,99.90
2022-07-25T20:15:43.887Z,99.90
2022-07-25T20:18:16.045Z,99.90
2022-07-25T20:20:47.084Z,99.90
2022-07-25T20:23:14.550Z,99.90
2022-07-25T20:25:42.059Z,99.90
2022-07-25T20:28:09.939Z,99.90
2022-07-25T20:30:37.753Z,99.90
2022-07-25T20:33:09.193Z,1.00
2022-07-25T20:35:38.522Z,1.00
2022-07-25T20:38:09.441Z,1.00
2022-07-25T20:40:46.409Z,1.00
2022-07-25T20:43:16.260Z,1.00
2022-07-25T20:45:44.009Z,1.00
2022-07-25T20:48:11.643Z,1.00
2022-07-25T20:50:40.187Z,1.00
2022-07-25T20:53:08.661Z,1.00
2022-07-25T20:55:36.510Z,1.00
2022-07-25T20:58:04.804Z,1.00
2022-07-25T21:00:33.078Z,1.00
2022-07-25T21:03:01.385Z,1.00
2022-07-25T21:05:29.372Z,1.00
2022-07-25T21:07:57.051Z,1.00
2022-07-25T21:10:25.056Z,1.00
2022-07-25T21:12:52.928Z,1.00
2022-07-25T21:15:20.433Z,1.00
2022-07-25T21:17:48.072Z,1.00
2022-07-25T21:20:16.003Z,1.00
2022-07-25T21:22:44.642Z,1.00
2022-07-25T21:25:12.612Z,1.00
2022-07-25T21:27:40.335Z,1.00
2022-07-25T21:30:09.890Z,1.00
2022-07-25T21:32:39.314Z,1.00
2022-07-25T21:35:07.687Z,1.00
2022-07-25T21:37:35.164Z,1.00
2022-07-25T21:40:02.917Z,1.00
2022-07-25T21:42:30.504Z,1.00
2022-07-25T21:44:57.968Z,1.00
2022-07-25T21:47:25.477Z,1.00
2022-07-25T21:50:13.033Z,1.00
2022-07-25T21:52:40.859Z,1.00
2022-07-25T21:55:08.781Z,1.00
2022-07-25T21:57:36.304Z,1.00
2022-07-25T22:00:07.431Z,1.00
2022-07-25T22:02:34.835Z,1.00
2022-07-25T22:05:02.280Z,1.00
2022-07-25T22:07:29.909Z,1.00
2022-07-25T22:09:57.479Z,1.00
2022-07-25T22:12:25.163Z,1.00
2022-07-25T22:14:52.722Z,1.00
2022-07-25T22:17:20.285Z,1.00
2022-07-25T22:19:47.948Z,1.00
2022-07-25T22:22:16.224Z,1.00
2022-07-25T22:24:46.587Z,1.00
2022-07-25T22:27:14.519Z,1.00
2022-07-25T22:29:42.094Z,1.00
2022-07-25T22:32:09.784Z,3.30
2022-07-25T22:34:37.373Z,20.50
2022-07-25T22:37:04.971Z,27.60
2022-07-25T22:39:32.709Z,34.20
2022-07-25T22:42:00.302Z,28.00
2022-07-25T22:44:28.774Z,17.70
2022-07-25T22:46:57.504Z,18.80
2022-07-25T22:49:25.803Z,8.00
2022-07-25T22:51:53.367Z,12.60
2022-07-25T22:54:20.853Z,13.90
2022-07-25T22:56:48.384Z,1.00
2022-07-25T22:59:16.448Z,1.00
2022-07-25T23:01:44.075Z,1.00
2022-07-25T23:04:11.842Z,1.00
2022-07-25T23:06:39.418Z,1.00
2022-07-25T23:09:07.193Z,1.00
2022-07-25T23:11:35.041Z,1.00
2022-07-25T23:14:02.794Z,1.00
2022-07-25T23:16:30.406Z,1.00
2022-07-25T23:18:58.008Z,1.00
2022-07-25T23:21:26.101Z,1.00
2022-07-25T23:23:55.428Z,1.00
2022-07-25T23:26:22.920Z,1.00
2022-07-25T23:28:50.413Z,1.00
2022-07-25T23:31:17.988Z,1.00
2022-07-25T23:33:45.679Z,1.00
2022-07-25T23:36:13.100Z,1.00
2022-07-25T23:38:40.689Z,1.00
2022-07-25T23:41:08.203Z,1.00
2022-07-25T23:43:56.686Z,1.00
2022-07-25T23:46:27.940Z,1.00
2022-07-25T23:48:58.340Z,1.00
2022-07-25T23:51:26.153Z,1.00
2022-07-25T23:53:53.883Z,1.00
2022-07-25T23:56:21.699Z,1.00
2022-07-25T23:58:50.239Z,1.00
